createdAt,value
2023-11-30T00:00:17.325Z,82.92
2023-11-30T00:02:44.028Z,83.05
2023-11-30T00:05:10.862Z,82.98
2023-11-30T00:07:37.594Z,83.32
2023-11-30T00:10:04.867Z,83.09
2023-11-30T00:12:31.994Z,83.53
2023-11-30T00:14:58.858Z,83.09
2023-11-30T00:17:25.754Z,82.55
2023-11-30T00:19:52.451Z,82.99
2023-11-30T00:22:19.716Z,83.12
2023-11-30T00:24:46.402Z,83.11
2023-11-30T00:27:13.091Z,83.27
2023-11-30T00:29:39.804Z,83.27
2023-11-30T00:32:06.834Z,83.50
2023-11-30T00:34:33.588Z,83.05
2023-11-30T00:37:00.255Z,83.21
2023-11-30T00:39:26.922Z,82.90
2023-11-30T00:41:53.805Z,83.20
2023-11-30T00:44:22.443Z,83.18
2023-11-30T00:46:49.385Z,83.38
2023-11-30T00:49:16.143Z,83.06
2023-11-30T00:51:42.868Z,83.24
2023-11-30T00:54:09.558Z,83.75
2023-11-30T00:56:36.339Z,83.63
2023-11-30T00:59:03.007Z,83.58
2023-11-30T01:01:29.808Z,83.37
2023-11-30T01:03:56.517Z,83.42
2023-11-30T01:06:23.302Z,83.41
2023-11-30T01:08:50.051Z,83.40
2023-11-30T01:11:16.757Z,83.66
2023-11-30T01:13:45.355Z,83.39
2023-11-30T01:16:12.110Z,83.29
2023-11-30T01:18:38.856Z,83.43
2023-11-30T01:21:06.043Z,82.97
2023-11-30T01:23:32.689Z,83.20
2023-11-30T01:25:59.367Z,83.16
2023-11-30T01:28:26.055Z,83.28
2023-11-30T01:30:52.827Z,83.75
2023-11-30T01:33:19.593Z,83.52
2023-11-30T01:35:46.438Z,83.48
2023-11-30T01:38:13.109Z,83.77
2023-11-30T01:40:39.942Z,83.51
2023-11-30T01:43:07.684Z,83.31
2023-11-30T01:45:34.651Z,83.63
2023-11-30T01:48:02.230Z,83.54
2023-11-30T01:50:28.980Z,83.29
2023-11-30T01:52:56.215Z,83.47
2023-11-30T01:55:23.017Z,83.09
2023-11-30T01:57:49.800Z,83.69
2023-11-30T02:00:17.488Z,83.55
2023-11-30T02:02:44.731Z,83.23
2023-11-30T02:05:11.639Z,83.35
2023-11-30T02:07:38.449Z,83.28
2023-11-30T02:10:05.394Z,83.27
2023-11-30T02:12:32.106Z,83.70
2023-11-30T02:15:00.452Z,83.32
2023-11-30T02:17:27.244Z,83.73
2023-11-30T02:19:53.912Z,84.16
2023-11-30T02:22:20.587Z,84.23
2023-11-30T02:24:47.340Z,84.04
2023-11-30T02:27:14.233Z,84.35
2023-11-30T02:29:40.924Z,83.76
2023-11-30T02:32:07.849Z,83.87
2023-11-30T02:34:34.552Z,84.19
2023-11-30T02:37:01.319Z,83.88
2023-11-30T02:39:28.109Z,83.90
2023-11-30T02:41:54.888Z,83.91
2023-11-30T02:44:22.355Z,83.36
2023-11-30T02:46:49.236Z,84.12
2023-11-30T02:49:15.993Z,83.74
2023-11-30T02:51:42.697Z,83.70
2023-11-30T02:54:09.383Z,83.64
2023-11-30T02:56:42.369Z,83.75
2023-11-30T02:59:09.109Z,83.96
2023-11-30T03:01:43.347Z,83.81
2023-11-30T03:04:10.129Z,84.02
2023-11-30T03:06:36.818Z,83.91
2023-11-30T03:09:03.750Z,83.92
2023-11-30T03:11:30.428Z,84.04
2023-11-30T03:13:57.151Z,84.11
2023-11-30T03:16:25.589Z,84.46
2023-11-30T03:19:05.810Z,84.65
2023-11-30T03:21:39.218Z,84.61
2023-11-30T03:24:08.929Z,84.39
2023-11-30T03:26:35.736Z,84.18
2023-11-30T03:29:02.404Z,84.15
2023-11-30T03:31:29.137Z,84.25
2023-11-30T03:33:55.796Z,84.48
2023-11-30T03:36:22.616Z,84.55
2023-11-30T03:38:54.843Z,84.50
2023-11-30T03:41:22.257Z,84.57
2023-11-30T03:43:49.416Z,84.01
2023-11-30T03:46:17.053Z,84.47
2023-11-30T03:48:44.057Z,84.22
2023-11-30T03:51:11.952Z,84.53
2023-11-30T03:53:38.727Z,84.43
2023-11-30T03:56:05.943Z,84.30
2023-11-30T03:58:32.752Z,84.49
2023-11-30T04:00:59.434Z,84.50
2023-11-30T04:03:26.122Z,84.39
2023-11-30T04:05:53.124Z,84.16
2023-11-30T04:08:19.880Z,84.41
2023-11-30T04:10:46.625Z,84.34
2023-11-30T04:13:13.339Z,84.20
2023-11-30T04:15:40.814Z,84.11
2023-11-30T04:18:07.737Z,84.36
2023-11-30T04:20:34.584Z,84.40
2023-11-30T04:23:01.357Z,84.09
2023-11-30T04:25:28.029Z,84.17
2023-11-30T04:27:54.702Z,84.65
2023-11-30T04:30:21.493Z,84.51
2023-11-30T04:32:48.315Z,84.72
2023-11-30T04:35:15.117Z,84.58
2023-11-30T04:37:41.781Z,84.57
2023-11-30T04:40:09.027Z,84.38
2023-11-30T04:42:36.505Z,84.23
2023-11-30T04:45:04.033Z,83.66
2023-11-30T04:47:30.779Z,84.31
2023-11-30T04:49:57.461Z,83.99
2023-11-30T04:52:24.949Z,84.28
2023-11-30T04:54:52.042Z,84.45
2023-11-30T04:57:18.893Z,84.61
2023-11-30T04:59:46.538Z,84.36
2023-11-30T05:02:13.362Z,84.41
2023-11-30T05:04:40.195Z,84.50
2023-11-30T05:07:06.908Z,84.52
2023-11-30T05:09:33.672Z,84.71
2023-11-30T05:12:00.682Z,84.86
2023-11-30T05:14:27.447Z,85.09
2023-11-30T05:16:58.360Z,84.98
2023-11-30T05:19:25.288Z,85.27
2023-11-30T05:21:52.294Z,85.19
2023-11-30T05:24:19.034Z,85.30
2023-11-30T05:26:45.819Z,85.29
2023-11-30T05:29:12.503Z,85.29
2023-11-30T05:31:39.156Z,85.70
2023-11-30T05:34:05.887Z,85.66
2023-11-30T05:36:32.997Z,86.01
2023-11-30T05:39:00.042Z,85.93
2023-11-30T05:41:26.944Z,85.96
2023-11-30T05:43:54.554Z,86.07
2023-11-30T05:46:21.517Z,86.59
2023-11-30T05:48:48.335Z,86.49
2023-11-30T05:51:15.172Z,86.68
2023-11-30T05:53:42.105Z,86.86
2023-11-30T05:56:09.417Z,86.98
2023-11-30T05:58:37.055Z,87.15
2023-11-30T06:01:03.769Z,87.39
2023-11-30T06:03:30.590Z,87.38
2023-11-30T06:05:57.480Z,87.21
2023-11-30T06:08:28.198Z,87.56
2023-11-30T06:10:54.982Z,87.07
2023-11-30T06:13:25.943Z,87.26
2023-11-30T06:15:54.032Z,87.13
2023-11-30T06:18:21.040Z,87.38
2023-11-30T06:20:48.109Z,87.88
2023-11-30T06:23:14.821Z,87.73
2023-11-30T06:25:41.507Z,87.37
2023-11-30T06:28:08.180Z,87.34
2023-11-30T06:30:35.529Z,87.42
2023-11-30T06:33:02.306Z,87.53
2023-11-30T06:35:29.008Z,87.27
2023-11-30T06:37:55.682Z,87.43
2023-11-30T06:40:22.362Z,87.63
2023-11-30T06:42:50.000Z,87.42
2023-11-30T06:45:17.152Z,87.51
2023-11-30T06:47:43.898Z,87.69
2023-11-30T06:50:10.750Z,87.65
2023-11-30T06:52:37.452Z,87.46
2023-11-30T06:55:04.941Z,87.51
2023-11-30T06:57:31.807Z,87.14
2023-11-30T06:59:58.715Z,87.80
2023-11-30T07:02:25.541Z,87.19
2023-11-30T07:04:52.429Z,87.24
2023-11-30T07:07:28.054Z,87.21
2023-11-30T07:10:00.902Z,87.12
2023-11-30T07:12:28.123Z,87.00
2023-11-30T07:14:55.230Z,86.79
2023-11-30T07:17:25.047Z,86.80
2023-11-30T07:19:53.561Z,87.19
2023-11-30T07:22:21.839Z,87.20
2023-11-30T07:24:49.196Z,87.01
2023-11-30T07:27:22.351Z,87.25
2023-11-30T07:29:49.059Z,87.09
2023-11-30T07:32:19.133Z,87.53
2023-11-30T07:34:46.149Z,87.44
2023-11-30T07:37:16.255Z,87.70
2023-11-30T07:39:42.976Z,87.48
2023-11-30T07:42:09.780Z,87.27
2023-11-30T07:44:36.747Z,87.21
2023-11-30T07:47:03.620Z,87.43
2023-11-30T07:49:30.458Z,87.37
2023-11-30T07:51:57.300Z,87.20
2023-11-30T07:54:24.007Z,87.11
2023-11-30T07:56:50.802Z,87.38
2023-11-30T07:59:17.443Z,87.25
2023-11-30T08:01:44.174Z,87.07
2023-11-30T08:04:11.176Z,86.97
2023-11-30T08:06:38.262Z,86.93
2023-11-30T08:09:05.112Z,86.92
2023-11-30T08:11:32.063Z,86.87
2023-11-30T08:13:58.813Z,87.10
2023-11-30T08:16:26.152Z,87.24
2023-11-30T08:18:53.124Z,86.43
2023-11-30T08:21:21.774Z,86.83
2023-11-30T08:23:49.055Z,86.21
2023-11-30T08:26:16.660Z,86.42
2023-11-30T08:28:46.272Z,86.13
2023-11-30T08:31:13.719Z,86.24
2023-11-30T08:33:40.565Z,86.29
2023-11-30T08:36:07.920Z,86.16
2023-11-30T08:38:38.705Z,86.11
2023-11-30T08:41:05.591Z,85.84
2023-11-30T08:43:32.294Z,85.66
2023-11-30T08:45:59.887Z,85.92
2023-11-30T08:48:27.444Z,86.00
2023-11-30T08:50:54.788Z,85.77
2023-11-30T08:53:22.289Z,85.70
2023-11-30T08:55:49.209Z,86.02
2023-11-30T08:58:16.010Z,85.86
2023-11-30T09:00:43.641Z,85.85
2023-11-30T09:03:10.874Z,85.79
2023-11-30T09:05:37.722Z,85.56
2023-11-30T09:08:04.858Z,85.42
2023-11-30T09:10:31.587Z,85.63
2023-11-30T09:12:58.355Z,85.72
2023-11-30T09:15:25.752Z,85.94
2023-11-30T09:17:52.670Z,85.66
2023-11-30T09:20:32.641Z,85.39
2023-11-30T09:23:36.788Z,85.52
2023-11-30T09:26:21.937Z,85.42
2023-11-30T09:28:49.137Z,85.68
2023-11-30T09:31:16.412Z,85.60
2023-11-30T09:33:43.559Z,85.27
2023-11-30T09:36:10.951Z,85.41
2023-11-30T09:38:37.694Z,85.46
2023-11-30T09:41:06.929Z,85.50
2023-11-30T09:43:34.362Z,85.47
2023-11-30T09:46:01.609Z,85.47
2023-11-30T09:48:31.194Z,85.27
2023-11-30T09:50:58.358Z,85.37
2023-11-30T09:53:25.095Z,85.58
2023-11-30T09:55:51.922Z,85.52
2023-11-30T09:58:18.598Z,85.18
2023-11-30T10:00:45.331Z,84.92
2023-11-30T10:03:12.156Z,85.14
2023-11-30T10:05:38.914Z,84.76
2023-11-30T10:08:06.248Z,84.30
2023-11-30T10:10:33.122Z,84.30
2023-11-30T10:12:59.904Z,84.56
2023-11-30T10:15:29.619Z,84.56
2023-11-30T10:17:58.579Z,84.31
2023-11-30T10:23:34.402Z,84.04
2023-11-30T10:26:03.595Z,84.37
2023-11-30T10:28:31.120Z,83.80
2023-11-30T10:31:02.859Z,84.36
2023-11-30T10:33:34.535Z,84.13
2023-11-30T10:36:05.253Z,83.66
2023-11-30T10:38:36.243Z,84.05
2023-11-30T10:41:08.455Z,83.34
2023-11-30T10:43:38.752Z,83.73
2023-11-30T10:46:08.774Z,83.93
2023-11-30T10:48:38.520Z,83.83
2023-11-30T10:51:06.868Z,83.78
2023-11-30T10:53:45.644Z,83.93
2023-11-30T10:56:14.944Z,83.88
2023-11-30T10:58:44.035Z,83.39
2023-11-30T11:01:12.728Z,83.50
2023-11-30T11:03:49.050Z,83.28
2023-11-30T11:06:19.224Z,83.21
2023-11-30T11:09:09.611Z,82.60
2023-11-30T11:11:44.603Z,82.70
2023-11-30T11:14:39.709Z,82.63
2023-11-30T11:18:00.764Z,81.85
2023-11-30T11:25:26.396Z,81.97
2023-11-30T11:27:53.148Z,81.42
2023-11-30T11:30:22.063Z,81.75
2023-11-30T11:32:49.913Z,81.45
2023-11-30T11:35:16.703Z,81.26
2023-11-30T11:37:43.468Z,81.55
2023-11-30T11:40:10.557Z,80.66
2023-11-30T11:42:37.426Z,80.99
2023-11-30T11:45:05.603Z,80.44
2023-11-30T11:47:32.670Z,81.26
2023-11-30T11:50:02.201Z,80.68
2023-11-30T11:52:31.661Z,80.16
2023-11-30T11:55:09.498Z,80.16
2023-11-30T11:58:01.358Z,80.42
2023-11-30T12:00:28.314Z,79.52
2023-11-30T12:03:09.176Z,79.47
2023-11-30T12:05:46.791Z,79.34
2023-11-30T12:08:13.518Z,79.47
2023-11-30T12:10:42.297Z,79.41
2023-11-30T12:13:12.240Z,79.48
2023-11-30T12:15:39.542Z,79.39
2023-11-30T12:18:08.221Z,78.92
2023-11-30T12:20:35.376Z,78.65
2023-11-30T12:23:03.315Z,78.21
2023-11-30T12:25:30.431Z,77.65
2023-11-30T12:27:57.459Z,77.47
2023-11-30T12:30:27.195Z,77.53
2023-11-30T12:32:54.127Z,77.71
2023-11-30T12:35:21.166Z,77.85
2023-11-30T12:37:50.061Z,77.62
2023-11-30T12:40:17.209Z,77.18
2023-11-30T12:42:44.762Z,77.58
2023-11-30T12:45:12.447Z,77.03
2023-11-30T12:47:42.694Z,77.52
2023-11-30T12:50:21.789Z,77.35
2023-11-30T12:52:49.002Z,77.43
2023-11-30T12:55:17.704Z,77.06
2023-11-30T12:57:46.242Z,77.34
2023-11-30T13:00:16.154Z,77.66
2023-11-30T13:02:46.680Z,78.05
2023-11-30T13:05:15.133Z,77.43
2023-11-30T13:07:42.074Z,76.89
2023-11-30T13:10:11.797Z,76.76
2023-11-30T13:12:40.235Z,76.32
2023-11-30T13:15:11.529Z,76.33
2023-11-30T13:17:39.744Z,76.19
2023-11-30T13:20:11.072Z,76.11
2023-11-30T13:22:37.886Z,76.80
2023-11-30T13:25:05.198Z,76.00
2023-11-30T13:27:33.615Z,76.67
2023-11-30T13:30:01.078Z,77.07
2023-11-30T13:32:31.914Z,76.70
2023-11-30T13:34:59.149Z,75.46
2023-11-30T13:37:26.326Z,75.86
2023-11-30T13:39:53.118Z,75.71
2023-11-30T13:42:19.830Z,76.07
2023-11-30T13:44:47.077Z,75.98
2023-11-30T13:47:14.226Z,76.29
2023-11-30T13:49:43.633Z,75.77
2023-11-30T13:56:24.402Z,75.13
2023-11-30T13:58:51.091Z,75.29
2023-11-30T14:01:18.122Z,75.46
2023-11-30T14:03:45.337Z,75.79
2023-11-30T14:06:13.273Z,75.10
2023-11-30T14:08:41.361Z,75.57
2023-11-30T14:11:13.194Z,75.23
2023-11-30T14:13:40.171Z,75.52
2023-11-30T14:16:07.837Z,75.56
2023-11-30T14:18:34.804Z,75.74
2023-11-30T14:21:01.948Z,75.55
2023-11-30T14:23:28.724Z,75.56
2023-11-30T14:25:57.518Z,75.33
2023-11-30T14:28:26.193Z,75.55
2023-11-30T14:30:53.372Z,75.84
2023-11-30T14:33:20.423Z,75.52
2023-11-30T14:35:47.300Z,75.47
2023-11-30T14:38:14.618Z,75.60
2023-11-30T14:40:41.471Z,76.32
2023-11-30T14:43:08.293Z,75.83
2023-11-30T14:45:35.162Z,76.55
2023-11-30T14:48:01.950Z,75.85
2023-11-30T14:50:28.770Z,76.32
2023-11-30T14:52:55.504Z,76.61
2023-11-30T14:55:22.719Z,76.85
2023-11-30T14:57:49.720Z,76.21
2023-11-30T15:00:21.898Z,76.72
2023-11-30T15:02:50.082Z,76.98
2023-11-30T15:05:17.032Z,76.91
2023-11-30T15:07:44.079Z,76.60
2023-11-30T15:10:12.654Z,76.37
2023-11-30T15:12:40.077Z,76.52
2023-11-30T15:15:14.634Z,76.73
2023-11-30T15:17:44.413Z,76.89
2023-11-30T15:20:42.755Z,76.20
2023-11-30T15:26:23.078Z,76.88
2023-11-30T15:28:49.951Z,76.99
2023-11-30T15:31:22.376Z,76.71
2023-11-30T15:33:49.205Z,76.71
2023-11-30T15:36:16.273Z,76.43
2023-11-30T15:38:43.135Z,76.80
2023-11-30T15:41:10.329Z,76.44
2023-11-30T15:43:37.581Z,76.77
2023-11-30T15:46:17.145Z,76.74
2023-11-30T15:48:44.064Z,76.90
2023-11-30T15:51:12.602Z,76.92
2023-11-30T15:53:40.727Z,76.94
2023-11-30T15:56:09.030Z,77.09
2023-11-30T15:58:37.998Z,76.96
2023-11-30T16:01:04.802Z,77.54
2023-11-30T16:03:31.644Z,77.08
2023-11-30T16:05:58.520Z,77.83
2023-11-30T16:08:25.208Z,77.13
2023-11-30T16:10:51.881Z,77.40
2023-11-30T16:13:20.680Z,77.49
2023-11-30T16:15:47.492Z,77.99
2023-11-30T16:18:14.250Z,77.65
2023-11-30T16:20:40.947Z,77.60
2023-11-30T16:23:07.778Z,77.75
2023-11-30T16:25:34.567Z,78.55
2023-11-30T16:28:01.370Z,78.54
2023-11-30T16:30:28.204Z,78.20
2023-11-30T16:32:54.952Z,78.52
2023-11-30T16:35:21.650Z,78.68
2023-11-30T16:37:48.945Z,78.80
2023-11-30T16:40:15.719Z,79.00
2023-11-30T16:43:15.850Z,79.54
2023-11-30T16:45:43.089Z,79.25
2023-11-30T16:48:09.970Z,79.37
2023-11-30T16:50:36.660Z,79.80
2023-11-30T16:53:04.900Z,79.93
2023-11-30T16:55:31.728Z,79.66
2023-11-30T16:57:59.720Z,80.12
2023-11-30T17:00:26.837Z,79.97
2023-11-30T17:02:55.438Z,80.40
2023-11-30T17:05:22.502Z,80.36
2023-11-30T17:07:49.365Z,80.27
2023-11-30T17:10:16.168Z,80.49
2023-11-30T17:12:42.929Z,80.52
2023-11-30T17:15:11.586Z,80.70
2023-11-30T17:17:38.536Z,80.91
2023-11-30T17:20:07.292Z,80.97
2023-11-30T17:22:35.243Z,80.59
2023-11-30T17:25:02.131Z,81.04
2023-11-30T17:27:28.897Z,81.18
2023-11-30T17:29:55.640Z,80.95
2023-11-30T17:32:22.398Z,81.16
2023-11-30T17:34:49.492Z,81.37
2023-11-30T17:37:16.431Z,81.24
2023-11-30T17:39:43.259Z,81.50
2023-11-30T17:42:10.203Z,81.32
2023-11-30T17:44:37.235Z,81.04
2023-11-30T17:47:04.625Z,81.46
2023-11-30T17:49:31.464Z,81.76
2023-11-30T17:51:58.189Z,81.40
2023-11-30T17:54:24.956Z,81.28
2023-11-30T17:56:51.690Z,81.24
2023-11-30T17:59:18.462Z,81.46
2023-11-30T18:01:45.199Z,81.50
2023-11-30T18:04:11.959Z,81.52
2023-11-30T18:06:39.087Z,81.62
2023-11-30T18:09:05.967Z,81.56
2023-11-30T18:11:32.684Z,81.74
2023-11-30T18:13:59.455Z,81.87
2023-11-30T18:16:27.091Z,82.39
2023-11-30T18:18:54.196Z,81.88
2023-11-30T18:21:21.135Z,82.13
2023-11-30T18:23:48.275Z,81.88
2023-11-30T18:26:15.068Z,81.78
2023-11-30T18:28:41.814Z,82.05
2023-11-30T18:31:16.636Z,81.93
2023-11-30T18:33:49.575Z,81.80
2023-11-30T18:36:16.443Z,82.26
2023-11-30T18:38:50.185Z,81.55
2023-11-30T18:41:20.186Z,81.97
2023-11-30T18:43:47.975Z,82.16
2023-11-30T18:46:15.592Z,82.01
2023-11-30T18:48:42.813Z,81.89
2023-11-30T18:51:14.443Z,81.94
2023-11-30T18:53:42.232Z,81.77
2023-11-30T18:56:09.404Z,82.06
2023-11-30T18:58:36.845Z,81.57
2023-11-30T19:01:03.767Z,82.08
2023-11-30T19:03:30.612Z,81.80
2023-11-30T19:05:57.927Z,82.03
2023-11-30T19:08:24.851Z,81.66
2023-11-30T19:10:52.854Z,81.92
2023-11-30T19:13:23.101Z,82.08
2023-11-30T19:15:53.017Z,82.31
2023-11-30T19:22:18.611Z,82.51
2023-11-30T19:24:46.574Z,82.33
2023-11-30T19:27:13.465Z,82.06
2023-11-30T19:29:40.863Z,81.94
2023-11-30T19:32:08.181Z,81.93
2023-11-30T19:34:35.116Z,82.09
2023-11-30T19:37:01.976Z,82.05
2023-11-30T19:39:28.931Z,82.41
2023-11-30T19:41:55.895Z,82.17
2023-11-30T19:44:22.995Z,82.65
2023-11-30T19:46:50.051Z,82.64
2023-11-30T19:49:17.201Z,82.21
2023-11-30T19:51:44.483Z,82.42
2023-11-30T19:54:17.916Z,82.91
2023-11-30T19:56:44.862Z,83.01
2023-11-30T19:59:11.943Z,82.60
2023-11-30T20:01:38.948Z,82.37
2023-11-30T20:04:06.019Z,82.54
2023-11-30T20:06:32.943Z,82.52
2023-11-30T20:08:59.736Z,83.11
2023-11-30T20:11:26.637Z,83.03
2023-11-30T20:13:53.334Z,82.72
2023-11-30T20:16:20.822Z,82.93
2023-11-30T20:18:47.650Z,82.92
2023-11-30T20:21:22.686Z,83.18
2023-11-30T20:27:34.455Z,83.26
2023-11-30T20:30:02.668Z,83.28
2023-11-30T20:32:29.666Z,83.12
2023-11-30T20:34:56.748Z,83.12
2023-11-30T20:37:26.200Z,83.66
2023-11-30T20:40:25.606Z,83.27
2023-11-30T20:42:53.212Z,83.41
2023-11-30T20:45:20.679Z,83.23
2023-11-30T20:47:47.609Z,83.20
2023-11-30T20:50:23.734Z,83.03
2023-11-30T20:53:01.443Z,82.97
2023-11-30T20:55:48.555Z,83.33
2023-11-30T20:58:16.099Z,82.98
2023-11-30T21:00:42.939Z,83.25
2023-11-30T21:03:09.939Z,83.29
2023-11-30T21:05:37.553Z,83.08
2023-11-30T21:08:05.854Z,83.35
2023-11-30T21:10:33.730Z,83.15
2023-11-30T21:13:01.215Z,83.11
2023-11-30T21:15:29.731Z,83.11
2023-11-30T21:17:56.635Z,83.31
2023-11-30T21:20:23.758Z,83.03
2023-11-30T21:22:50.716Z,83.14
2023-11-30T21:25:17.617Z,83.52
2023-11-30T21:27:44.436Z,83.06
2023-11-30T21:30:11.561Z,83.27
2023-11-30T21:32:38.364Z,83.47
2023-11-30T21:35:05.646Z,83.55
2023-11-30T21:37:33.297Z,83.30
2023-11-30T21:40:00.331Z,83.51
2023-11-30T21:42:27.438Z,83.69
2023-11-30T21:44:54.352Z,83.49
2023-11-30T21:47:21.561Z,83.53
2023-11-30T21:50:17.918Z,83.40
2023-11-30T21:52:49.119Z,83.26
2023-11-30T21:55:16.932Z,83.52
2023-11-30T21:57:44.332Z,83.25
2023-11-30T22:00:15.192Z,83.52
2023-11-30T22:02:46.281Z,83.22
2023-11-30T22:05:24.168Z,83.27
2023-11-30T22:07:57.518Z,83.53
2023-11-30T22:10:24.506Z,83.38
2023-11-30T22:12:51.618Z,83.47
2023-11-30T22:15:19.969Z,83.40
2023-11-30T22:17:47.543Z,83.64
2023-11-30T22:20:14.748Z,83.70
2023-11-30T22:22:41.649Z,83.69
2023-11-30T22:25:09.201Z,83.85
2023-11-30T22:27:35.991Z,83.63
2023-11-30T22:30:02.771Z,83.69
2023-11-30T22:32:29.829Z,83.79
2023-11-30T22:34:56.597Z,83.92
2023-11-30T22:37:23.414Z,83.83
2023-11-30T22:39:50.267Z,84.17
2023-11-30T22:42:17.233Z,83.91
2023-11-30T22:44:44.458Z,83.61
2023-11-30T22:47:13.863Z,83.61
2023-11-30T22:49:40.778Z,83.68
2023-11-30T22:52:07.731Z,83.45
2023-11-30T22:54:34.648Z,83.64
2023-11-30T22:57:01.711Z,83.73
2023-11-30T22:59:29.029Z,83.86
2023-11-30T23:01:56.258Z,83.67
2023-11-30T23:04:23.678Z,83.82
2023-11-30T23:06:51.200Z,83.68
2023-11-30T23:09:18.367Z,83.83
2023-11-30T23:11:45.288Z,84.02
2023-11-30T23:14:12.193Z,83.82
2023-11-30T23:17:02.299Z,83.87
2023-11-30T23:19:32.672Z,83.53
2023-11-30T23:22:00.763Z,83.59
2023-11-30T23:24:31.814Z,83.35
2023-11-30T23:26:59.165Z,83.83
2023-11-30T23:29:26.137Z,83.83
2023-11-30T23:31:52.920Z,83.80
2023-11-30T23:34:19.749Z,83.66
2023-11-30T23:36:46.600Z,83.97
2023-11-30T23:39:13.319Z,83.99
2023-11-30T23:41:40.092Z,83.96
2023-11-30T23:44:06.865Z,83.61
2023-11-30T23:46:34.086Z,83.82
2023-11-30T23:49:00.966Z,84.04
2023-11-30T23:54:33.997Z,83.88
2023-11-30T23:57:00.901Z,84.25
2023-11-30T23:59:27.697Z,83.93
